createdAt,value
2023-10-23T00:01:19.067Z,48.18
2023-10-23T00:03:51.892Z,48.18
2023-10-23T00:06:24.964Z,48.31
2023-10-23T00:08:57.356Z,48.18
2023-10-23T00:11:28.150Z,48.11
2023-10-23T00:13:58.571Z,48.45
2023-10-23T00:16:29.536Z,48.34
2023-10-23T00:19:02.084Z,48.21
2023-10-23T00:21:31.749Z,48.05
2023-10-23T00:24:15.675Z,47.99
2023-10-23T00:26:43.766Z,48.12
2023-10-23T00:29:14.173Z,48.18
2023-10-23T00:31:44.383Z,48.14
2023-10-23T00:34:18.573Z,48.19
2023-10-23T00:36:48.719Z,48.16
2023-10-23T00:39:21.192Z,48.22
2023-10-23T00:41:48.334Z,48.26
2023-10-23T00:44:19.503Z,48.27
2023-10-23T00:46:46.978Z,48.08
2023-10-23T00:49:22.933Z,48.16
2023-10-23T00:51:50.741Z,48.27
2023-10-23T00:54:21.602Z,48.27
2023-10-23T00:56:54.610Z,48.20
2023-10-23T00:59:25.573Z,48.10
2023-10-23T01:01:53.825Z,48.13
2023-10-23T01:04:27.786Z,48.03
2023-10-23T01:07:00.249Z,48.01
2023-10-23T01:09:30.592Z,48.30
2023-10-23T01:12:03.293Z,48.00
2023-10-23T01:14:36.018Z,47.99
2023-10-23T01:17:09.731Z,47.95
2023-10-23T01:19:39.615Z,47.79
2023-10-23T01:22:07.671Z,47.70
2023-10-23T01:24:39.962Z,47.66
2023-10-23T01:27:07.669Z,47.66
2023-10-23T01:29:49.441Z,47.66
2023-10-23T01:32:22.114Z,47.39
2023-10-23T01:35:01.780Z,47.33
2023-10-23T01:37:37.399Z,47.16
2023-10-23T01:40:10.423Z,47.34
2023-10-23T01:42:43.144Z,47.31
2023-10-23T01:45:16.021Z,47.20
2023-10-23T01:47:51.793Z,46.97
2023-10-23T01:50:25.819Z,47.17
2023-10-23T01:52:57.042Z,47.31
2023-10-23T01:55:26.662Z,47.29
2023-10-23T01:58:05.899Z,47.03
2023-10-23T02:00:41.237Z,47.07
2023-10-23T02:03:14.865Z,47.03
2023-10-23T02:05:49.698Z,46.87
2023-10-23T02:08:22.995Z,47.06
2023-10-23T02:10:50.668Z,47.01
2023-10-23T02:13:24.508Z,46.97
2023-10-23T02:15:56.941Z,47.23
2023-10-23T02:18:27.928Z,46.80
2023-10-23T02:20:57.894Z,46.96
2023-10-23T02:23:25.475Z,46.89
2023-10-23T02:25:58.791Z,46.92
2023-10-23T02:28:26.076Z,46.83
2023-10-23T02:31:01.408Z,46.64
2023-10-23T02:33:40.566Z,46.97
2023-10-23T02:36:16.154Z,46.98
2023-10-23T02:38:53.745Z,46.91
2023-10-23T02:41:29.658Z,47.04
2023-10-23T02:44:02.742Z,46.94
2023-10-23T02:46:42.036Z,47.25
2023-10-23T02:49:12.458Z,47.08
2023-10-23T02:51:45.215Z,47.14
2023-10-23T02:54:21.795Z,47.10
2023-10-23T02:56:54.210Z,47.50
2023-10-23T02:59:27.272Z,47.62
2023-10-23T03:02:06.714Z,47.48
2023-10-23T03:04:45.285Z,47.50
2023-10-23T03:07:15.045Z,47.52
2023-10-23T03:09:47.889Z,47.44
2023-10-23T03:12:21.731Z,47.54
2023-10-23T03:14:51.595Z,47.35
2023-10-23T03:17:22.797Z,47.38
2023-10-23T03:19:58.378Z,47.69
2023-10-23T03:22:37.044Z,47.77
2023-10-23T03:25:05.793Z,47.47
2023-10-23T03:27:37.841Z,47.62
2023-10-23T03:30:08.348Z,47.46
2023-10-23T03:32:40.854Z,48.00
2023-10-23T03:35:16.770Z,47.89
2023-10-23T03:37:53.166Z,48.03
2023-10-23T03:40:29.764Z,48.41
2023-10-23T03:42:57.006Z,48.64
2023-10-23T03:45:35.481Z,50.80
2023-10-23T03:48:08.893Z,52.09
2023-10-23T03:50:47.435Z,51.97
2023-10-23T03:53:19.852Z,52.06
2023-10-23T03:55:56.700Z,52.07
2023-10-23T03:58:29.916Z,52.19
2023-10-23T04:01:11.736Z,51.83
2023-10-23T04:03:47.815Z,51.84
2023-10-23T04:06:20.584Z,51.96
2023-10-23T04:08:56.865Z,51.60
2023-10-23T04:11:32.726Z,51.72
2023-10-23T04:14:06.296Z,51.42
2023-10-23T04:16:44.214Z,51.47
2023-10-23T04:19:17.949Z,51.27
2023-10-23T04:21:53.666Z,51.18
2023-10-23T04:24:27.066Z,51.00
2023-10-23T04:27:02.697Z,50.58
2023-10-23T04:29:33.583Z,50.75
2023-10-23T04:32:11.881Z,50.41
2023-10-23T04:34:47.808Z,50.57
2023-10-23T04:37:35.274Z,50.52
2023-10-23T04:40:07.916Z,50.35
2023-10-23T04:42:45.927Z,50.27
2023-10-23T04:45:19.282Z,50.38
2023-10-23T04:47:57.623Z,50.36
2023-10-23T04:50:31.119Z,49.94
2023-10-23T04:53:01.332Z,50.11
2023-10-23T04:55:43.873Z,50.10
2023-10-23T04:58:19.883Z,50.07
2023-10-23T05:00:55.729Z,49.79
2023-10-23T05:03:34.616Z,49.81
2023-10-23T05:06:13.616Z,49.79
2023-10-23T05:08:47.128Z,49.77
2023-10-23T05:11:25.771Z,49.69
2023-10-23T05:14:03.931Z,49.57
2023-10-23T05:16:39.742Z,49.55
2023-10-23T05:19:12.538Z,49.57
2023-10-23T05:21:48.461Z,49.46
2023-10-23T05:24:20.954Z,49.63
2023-10-23T05:26:51.204Z,49.28
2023-10-23T05:29:20.872Z,49.66
2023-10-23T05:32:00.799Z,49.34
2023-10-23T05:34:28.229Z,49.45
2023-10-23T05:37:07.314Z,49.22
2023-10-23T05:39:40.375Z,49.06
2023-10-23T05:42:08.113Z,49.36
2023-10-23T05:44:41.526Z,49.38
2023-10-23T05:47:11.937Z,49.43
2023-10-23T05:49:44.609Z,49.32
2023-10-23T05:52:19.609Z,49.31
2023-10-23T05:54:52.983Z,49.37
2023-10-23T05:57:26.901Z,49.10
2023-10-23T05:59:59.376Z,49.14
2023-10-23T06:02:38.227Z,49.02
2023-10-23T06:05:05.998Z,48.92
2023-10-23T06:07:36.886Z,48.93
2023-10-23T06:10:10.104Z,48.96
2023-10-23T06:12:40.598Z,48.83
2023-10-23T06:15:11.473Z,48.74
2023-10-23T06:17:42.917Z,48.50
2023-10-23T06:20:18.183Z,48.27
2023-10-23T06:22:49.367Z,47.80
2023-10-23T06:25:27.884Z,47.67
2023-10-23T06:27:59.148Z,47.59
2023-10-23T06:30:35.762Z,47.63
2023-10-23T06:33:09.407Z,47.43
2023-10-23T06:35:42.219Z,47.55
2023-10-23T06:38:13.803Z,47.45
2023-10-23T06:40:43.207Z,47.37
2023-10-23T06:43:17.063Z,47.35
2023-10-23T06:46:01.584Z,47.12
2023-10-23T06:48:37.567Z,47.07
2023-10-23T06:51:08.573Z,47.21
2023-10-23T06:53:44.342Z,47.32
2023-10-23T06:56:14.471Z,47.25
2023-10-23T06:58:44.718Z,47.11
2023-10-23T07:01:13.880Z,46.75
2023-10-23T07:03:41.668Z,46.76
2023-10-23T07:06:13.277Z,46.74
2023-10-23T07:08:50.366Z,46.69
2023-10-23T07:11:22.701Z,46.82
2023-10-23T07:13:55.835Z,46.78
2023-10-23T07:16:26.990Z,47.00
2023-10-23T07:18:58.326Z,46.88
2023-10-23T07:21:33.825Z,47.21
2023-10-23T07:24:05.249Z,47.25
2023-10-23T07:26:37.331Z,47.32
2023-10-23T07:29:10.707Z,47.26
2023-10-23T07:31:46.590Z,47.43
2023-10-23T07:34:17.136Z,47.48
2023-10-23T07:36:48.523Z,47.52
2023-10-23T07:39:19.645Z,47.66
2023-10-23T07:41:49.906Z,47.47
2023-10-23T07:44:17.932Z,47.59
2023-10-23T07:46:47.945Z,47.63
2023-10-23T07:49:18.800Z,47.94
2023-10-23T07:51:47.981Z,47.44
2023-10-23T07:54:24.767Z,47.22
2023-10-23T07:57:02.899Z,47.01
2023-10-23T07:59:34.238Z,47.04
2023-10-23T08:02:07.934Z,46.91
2023-10-23T08:04:41.620Z,46.90
2023-10-23T08:07:13.276Z,46.80
2023-10-23T08:09:44.883Z,46.91
2023-10-23T08:12:18.229Z,46.88
2023-10-23T08:14:49.004Z,46.54
2023-10-23T08:17:35.055Z,46.40
2023-10-23T08:20:08.610Z,46.49
2023-10-23T08:22:44.075Z,46.43
2023-10-23T08:25:23.168Z,46.11
2023-10-23T08:27:54.923Z,46.50
2023-10-23T08:30:31.212Z,46.72
2023-10-23T08:33:02.325Z,46.77
2023-10-23T08:35:41.258Z,46.69
2023-10-23T08:38:16.527Z,46.90
2023-10-23T08:40:48.234Z,46.59
2023-10-23T08:43:22.189Z,46.74
2023-10-23T08:46:00.496Z,46.77
2023-10-23T08:48:37.714Z,46.60
2023-10-23T08:51:18.547Z,46.67
2023-10-23T08:54:03.243Z,46.63
2023-10-23T08:56:53.002Z,46.98
2023-10-23T08:59:30.051Z,46.74
2023-10-23T09:02:01.822Z,47.06
2023-10-23T09:04:35.789Z,46.60
2023-10-23T09:07:12.775Z,46.69
2023-10-23T09:09:40.900Z,46.41
2023-10-23T09:12:30.069Z,46.52
2023-10-23T09:14:57.958Z,46.70
2023-10-23T09:17:34.081Z,46.70
2023-10-23T09:20:01.824Z,46.73
2023-10-23T09:22:34.764Z,47.27
2023-10-23T09:25:11.690Z,46.92
2023-10-23T09:27:42.427Z,46.94
2023-10-23T09:30:14.691Z,46.71
2023-10-23T09:32:48.664Z,46.50
2023-10-23T09:35:20.068Z,46.34
2023-10-23T09:37:57.451Z,46.12
2023-10-23T09:40:25.991Z,45.69
2023-10-23T09:43:02.900Z,46.03
2023-10-23T09:45:36.472Z,45.61
2023-10-23T09:48:04.487Z,45.77
2023-10-23T09:50:34.270Z,45.57
2023-10-23T09:53:08.397Z,45.71
2023-10-23T09:55:47.221Z,46.09
2023-10-23T09:58:20.865Z,46.19
2023-10-23T10:01:05.026Z,45.74
2023-10-23T10:03:44.100Z,46.17
2023-10-23T10:06:19.973Z,45.87
2023-10-23T10:08:56.423Z,45.87
2023-10-23T10:11:30.141Z,46.15
2023-10-23T10:14:06.530Z,46.31
2023-10-23T10:16:41.062Z,45.57
2023-10-23T10:19:13.528Z,45.68
2023-10-23T10:22:09.752Z,45.66
2023-10-23T10:24:42.449Z,45.75
2023-10-23T10:27:17.138Z,45.78
2023-10-23T10:29:53.083Z,45.54
2023-10-23T10:32:27.541Z,45.48
2023-10-23T10:34:57.817Z,45.26
2023-10-23T10:37:30.571Z,45.38
2023-10-23T10:39:58.269Z,45.54
2023-10-23T10:42:32.327Z,45.40
2023-10-23T10:45:02.672Z,45.05
2023-10-23T10:47:37.389Z,45.34
2023-10-23T10:50:16.072Z,45.52
2023-10-23T10:52:48.737Z,45.61
2023-10-23T10:55:21.906Z,45.53
2023-10-23T10:57:55.218Z,45.80
2023-10-23T11:00:26.584Z,45.75
2023-10-23T11:02:59.882Z,45.64
2023-10-23T11:05:36.777Z,45.75
2023-10-23T11:08:19.966Z,45.56
2023-10-23T11:10:47.829Z,46.01
2023-10-23T11:13:21.681Z,45.91
2023-10-23T11:15:59.874Z,46.29
2023-10-23T11:18:34.639Z,46.12
2023-10-23T11:21:12.198Z,46.41
2023-10-23T11:23:57.952Z,46.27
2023-10-23T11:26:34.798Z,46.35
2023-10-23T11:29:11.223Z,46.47
2023-10-23T11:31:42.117Z,46.21
2023-10-23T11:34:12.619Z,46.58
2023-10-23T11:36:43.625Z,46.48
2023-10-23T11:39:27.038Z,46.40
2023-10-23T11:42:03.754Z,46.17
2023-10-23T11:44:33.699Z,46.53
2023-10-23T11:47:07.175Z,46.70
2023-10-23T11:49:37.462Z,46.28
2023-10-23T11:52:08.868Z,46.17
2023-10-23T11:54:44.176Z,46.29
2023-10-23T11:57:14.902Z,46.00
2023-10-23T11:59:53.751Z,46.08
2023-10-23T12:02:24.827Z,45.81
2023-10-23T12:04:57.707Z,46.18
2023-10-23T12:07:28.817Z,46.26
2023-10-23T12:09:59.985Z,46.39
2023-10-23T12:12:35.679Z,46.51
2023-10-23T12:15:08.945Z,46.10
2023-10-23T12:17:41.379Z,46.37
2023-10-23T12:20:15.239Z,46.42
2023-10-23T12:22:50.351Z,46.39
2023-10-23T12:25:26.729Z,46.60
2023-10-23T12:27:57.316Z,46.44
2023-10-23T12:30:28.948Z,46.84
2023-10-23T12:33:17.649Z,46.71
2023-10-23T12:36:04.729Z,46.64
2023-10-23T12:38:34.798Z,46.60
2023-10-23T12:41:13.412Z,46.94
2023-10-23T12:43:52.685Z,46.97
2023-10-23T12:46:28.856Z,46.82
2023-10-23T12:49:05.899Z,47.20
2023-10-23T12:51:42.234Z,47.00
2023-10-23T12:54:19.015Z,47.21
2023-10-23T12:56:59.495Z,47.03
2023-10-23T12:59:44.924Z,46.55
2023-10-23T13:02:25.924Z,46.75
2023-10-23T13:05:01.744Z,46.69
2023-10-23T13:07:35.134Z,46.60
2023-10-23T13:10:07.128Z,47.96
2023-10-23T13:12:43.394Z,46.32
2023-10-23T13:15:12.809Z,46.32
2023-10-23T13:17:41.860Z,46.34
2023-10-23T13:20:54.008Z,46.33
2023-10-23T13:23:10.659Z,46.21
2023-10-23T13:25:40.524Z,46.84
2023-10-23T13:28:17.011Z,46.10
2023-10-23T13:30:50.816Z,46.19
2023-10-23T13:33:27.107Z,46.67
2023-10-23T13:36:01.900Z,46.63
2023-10-23T13:38:36.346Z,46.32
2023-10-23T13:41:06.842Z,46.77
2023-10-23T13:43:47.744Z,46.28
2023-10-23T13:46:22.095Z,46.90
2023-10-23T13:49:01.297Z,46.47
2023-10-23T13:51:35.331Z,46.37
2023-10-23T13:54:13.526Z,46.65
2023-10-23T13:56:50.567Z,46.24
2023-10-23T13:59:28.222Z,46.10
2023-10-23T14:02:02.615Z,45.69
2023-10-23T14:04:42.767Z,45.63
2023-10-23T14:07:17.094Z,45.54
2023-10-23T14:09:50.479Z,45.21
2023-10-23T14:12:28.813Z,45.49
2023-10-23T14:14:59.514Z,45.57
2023-10-23T14:17:40.144Z,45.67
2023-10-23T14:20:14.713Z,44.99
2023-10-23T14:22:48.296Z,45.17
2023-10-23T14:25:21.604Z,45.32
2023-10-23T14:27:55.675Z,45.24
2023-10-23T14:30:33.604Z,46.09
2023-10-23T14:33:07.823Z,46.01
2023-10-23T14:35:47.901Z,45.86
2023-10-23T14:38:28.007Z,45.69
2023-10-23T14:41:06.751Z,45.60
2023-10-23T14:43:41.932Z,46.01
2023-10-23T14:46:14.982Z,46.02
2023-10-23T14:48:42.884Z,45.75
2023-10-23T14:51:13.672Z,46.16
2023-10-23T14:53:42.660Z,45.63
2023-10-23T14:56:16.866Z,45.96
2023-10-23T14:58:45.724Z,46.03
2023-10-23T15:01:16.447Z,46.25
2023-10-23T15:03:47.460Z,46.19
2023-10-23T15:06:19.186Z,45.85
2023-10-23T15:08:50.260Z,45.52
2023-10-23T15:11:20.166Z,45.75
2023-10-23T15:13:48.192Z,45.93
2023-10-23T15:16:18.556Z,46.05
2023-10-23T15:18:46.798Z,45.29
2023-10-23T15:21:16.308Z,45.92
2023-10-23T15:23:49.722Z,45.76
2023-10-23T15:26:17.377Z,46.01
2023-10-23T15:28:45.171Z,46.10
2023-10-23T15:31:13.862Z,46.21
2023-10-23T15:33:41.721Z,46.25
2023-10-23T15:36:10.433Z,46.45
2023-10-23T15:38:40.143Z,46.51
2023-10-23T15:41:17.307Z,46.31
2023-10-23T15:43:50.749Z,46.60
2023-10-23T15:46:18.729Z,46.80
2023-10-23T15:48:49.545Z,46.75
2023-10-23T15:51:19.631Z,46.81
2023-10-23T15:53:51.971Z,46.72
2023-10-23T15:56:25.231Z,46.84
2023-10-23T15:58:55.892Z,46.98
2023-10-23T16:01:23.610Z,47.02
2023-10-23T16:03:56.128Z,47.00
2023-10-23T16:06:28.690Z,46.96
2023-10-23T16:09:09.335Z,47.44
2023-10-23T16:11:51.960Z,47.19
2023-10-23T16:14:25.849Z,47.27
2023-10-23T16:16:56.891Z,47.28
2023-10-23T16:19:30.038Z,47.01
2023-10-23T16:22:00.782Z,47.52
2023-10-23T16:24:28.428Z,47.65
2023-10-23T16:27:00.150Z,47.65
2023-10-23T16:29:27.943Z,47.82
2023-10-23T16:31:58.613Z,47.80
2023-10-23T16:34:28.560Z,47.71
2023-10-23T16:36:56.111Z,47.71
2023-10-23T16:39:31.674Z,47.75
2023-10-23T16:42:02.108Z,47.62
2023-10-23T16:44:44.388Z,47.54
2023-10-23T16:47:20.778Z,47.51
2023-10-23T16:49:49.186Z,47.77
2023-10-23T16:52:25.585Z,47.57
2023-10-23T16:54:56.033Z,47.54
2023-10-23T16:57:36.066Z,47.79
2023-10-23T17:00:23.175Z,47.95
2023-10-23T17:03:03.262Z,47.97
2023-10-23T17:05:45.759Z,47.84
2023-10-23T17:08:22.381Z,48.10
2023-10-23T17:11:09.516Z,47.94
2023-10-23T17:13:45.166Z,48.25
2023-10-23T17:16:21.166Z,48.07
2023-10-23T17:18:57.388Z,47.99
2023-10-23T17:21:36.587Z,47.95
2023-10-23T17:24:12.335Z,48.04
2023-10-23T17:26:49.081Z,47.88
2023-10-23T17:29:24.605Z,48.13
2023-10-23T17:32:04.057Z,47.84
2023-10-23T17:34:42.795Z,47.88
2023-10-23T17:37:18.306Z,47.64
2023-10-23T17:39:55.083Z,47.73
2023-10-23T17:42:23.763Z,48.01
2023-10-23T17:45:01.795Z,47.85
2023-10-23T17:47:43.294Z,47.79
2023-10-23T17:50:19.137Z,47.94
2023-10-23T17:52:52.027Z,47.96
2023-10-23T17:55:31.049Z,47.96
2023-10-23T17:58:07.375Z,48.05
2023-10-23T18:00:46.110Z,47.79
2023-10-23T18:03:25.218Z,47.64
2023-10-23T18:05:58.470Z,47.96
2023-10-23T18:08:35.320Z,47.96
2023-10-23T18:11:14.902Z,48.02
2023-10-23T18:13:47.848Z,48.02
2023-10-23T18:16:24.272Z,48.24
2023-10-23T18:19:04.262Z,48.20
2023-10-23T18:21:40.773Z,47.96
2023-10-23T18:24:22.934Z,48.16
2023-10-23T18:26:56.733Z,47.94
2023-10-23T18:29:44.341Z,48.13
2023-10-23T18:32:18.162Z,48.05
2023-10-23T18:34:58.546Z,47.85
2023-10-23T18:37:31.598Z,48.16
2023-10-23T18:40:06.119Z,47.64
2023-10-23T18:42:41.416Z,47.43
2023-10-23T18:45:19.514Z,47.59
2023-10-23T18:47:55.701Z,47.80
2023-10-23T18:50:31.696Z,47.58
2023-10-23T18:53:07.525Z,47.58
2023-10-23T18:55:41.124Z,47.99
2023-10-23T18:58:21.077Z,47.23
2023-10-23T19:00:53.877Z,47.41
2023-10-23T19:03:30.118Z,47.31
2023-10-23T19:06:06.172Z,47.78
2023-10-23T19:08:44.047Z,47.77
2023-10-23T19:11:23.168Z,47.80
2023-10-23T19:14:00.032Z,47.72
2023-10-23T19:16:38.786Z,47.80
2023-10-23T19:19:11.967Z,48.01
2023-10-23T19:21:47.057Z,47.79
2023-10-23T19:24:23.691Z,47.90
2023-10-23T19:26:56.802Z,47.75
2023-10-23T19:29:38.953Z,47.89
2023-10-23T19:32:15.944Z,48.03
2023-10-23T19:34:52.882Z,47.82
2023-10-23T19:37:27.033Z,47.89
2023-10-23T19:39:57.970Z,47.78
2023-10-23T19:42:40.311Z,47.82
2023-10-23T19:45:14.263Z,47.78
2023-10-23T19:47:51.496Z,47.88
2023-10-23T19:50:22.491Z,47.78
2023-10-23T19:53:04.648Z,48.04
2023-10-23T19:55:43.129Z,48.02
2023-10-23T19:58:24.184Z,48.13
2023-10-23T20:01:00.640Z,47.87
2023-10-23T20:03:36.814Z,47.93
2023-10-23T20:06:13.403Z,48.13
2023-10-23T20:08:46.425Z,47.90
2023-10-23T20:11:19.460Z,48.04
2023-10-23T20:13:58.216Z,47.93
2023-10-23T20:16:38.920Z,48.21
2023-10-23T20:19:18.169Z,48.03
2023-10-23T20:21:59.411Z,48.22
2023-10-23T20:24:35.526Z,48.09
2023-10-23T20:27:12.390Z,48.12
2023-10-23T20:29:51.325Z,47.99
2023-10-23T20:32:26.052Z,48.16
2023-10-23T20:34:59.206Z,47.96
2023-10-23T20:37:38.537Z,48.27
2023-10-23T20:40:10.509Z,48.06
2023-10-23T20:42:46.374Z,47.96
2023-10-23T20:45:19.556Z,48.17
2023-10-23T20:47:53.688Z,47.99
2023-10-23T20:50:30.182Z,48.00
2023-10-23T20:53:03.731Z,48.00
2023-10-23T20:55:40.869Z,48.13
2023-10-23T20:58:16.851Z,48.26
2023-10-23T21:00:57.694Z,48.13
2023-10-23T21:03:31.363Z,47.95
2023-10-23T21:06:08.663Z,47.96
2023-10-23T21:08:48.403Z,48.14
2023-10-23T21:11:24.346Z,47.99
2023-10-23T21:14:00.530Z,48.19
2023-10-23T21:16:40.099Z,48.14
2023-10-23T21:19:10.325Z,48.44
2023-10-23T21:21:50.218Z,48.13
2023-10-23T21:24:23.379Z,48.18
2023-10-23T21:26:59.071Z,48.05
2023-10-23T21:29:34.625Z,48.22
2023-10-23T21:32:12.509Z,48.13
2023-10-23T21:34:48.137Z,48.12
2023-10-23T21:37:18.589Z,48.05
2023-10-23T21:39:51.548Z,48.09
2023-10-23T21:42:30.041Z,48.25
2023-10-23T21:45:04.577Z,47.83
2023-10-23T21:47:46.271Z,48.14
2023-10-23T21:50:22.236Z,48.04
2023-10-23T21:52:49.935Z,48.09
2023-10-23T21:55:25.969Z,48.12
2023-10-23T21:58:05.858Z,48.08
2023-10-23T22:00:39.128Z,47.86
2023-10-23T22:03:19.406Z,48.05
2023-10-23T22:05:53.290Z,47.92
2023-10-23T22:08:29.303Z,48.13
2023-10-23T22:11:02.487Z,48.01
2023-10-23T22:13:39.219Z,48.24
2023-10-23T22:16:18.690Z,48.17
2023-10-23T22:18:55.126Z,48.15
2023-10-23T22:21:33.659Z,48.06
2023-10-23T22:24:07.554Z,47.96
2023-10-23T22:26:46.276Z,48.13
2023-10-23T22:29:22.378Z,48.25
2023-10-23T22:31:58.135Z,48.19
2023-10-23T22:34:38.082Z,47.95
2023-10-23T22:37:55.758Z,48.21
2023-10-23T22:40:17.192Z,48.21
2023-10-23T22:42:53.148Z,47.90
2023-10-23T22:45:31.727Z,47.93
2023-10-23T22:48:05.447Z,48.16
2023-10-23T22:50:39.424Z,48.02
2023-10-23T22:53:12.220Z,48.02
2023-10-23T22:55:42.911Z,48.14
2023-10-23T22:58:19.430Z,48.12
2023-10-23T23:00:54.895Z,48.03
2023-10-23T23:03:36.293Z,47.93
2023-10-23T23:06:13.854Z,47.89
2023-10-23T23:08:51.519Z,48.17
2023-10-23T23:11:29.460Z,48.00
2023-10-23T23:14:09.432Z,48.03
2023-10-23T23:16:49.366Z,47.97
2023-10-23T23:19:33.884Z,48.03
2023-10-23T23:22:09.856Z,47.88
2023-10-23T23:24:54.650Z,48.17
2023-10-23T23:27:28.146Z,48.11
2023-10-23T23:30:06.989Z,48.16
2023-10-23T23:32:43.998Z,48.23
2023-10-23T23:35:20.498Z,47.99
2023-10-23T23:37:55.725Z,48.22
2023-10-23T23:40:34.598Z,48.23
2023-10-23T23:43:11.002Z,48.13
2023-10-23T23:45:47.182Z,48.21
2023-10-23T23:48:20.431Z,48.18
2023-10-23T23:50:59.136Z,48.02
2023-10-23T23:53:34.891Z,48.27
2023-10-23T23:56:14.485Z,48.34
2023-10-23T23:58:56.052Z,48.05
